createdAt,value
2018-10-19T00:01:05.238Z,30.30
2018-10-19T00:05:07.710Z,30.47
2018-10-19T00:09:11.506Z,27.73
2018-10-19T00:13:13.819Z,24.70
2018-10-19T00:17:16.313Z,21.00
2018-10-19T00:21:18.646Z,22.17
2018-10-19T00:25:20.987Z,25.93
2018-10-19T00:29:23.438Z,29.07
2018-10-19T00:33:25.772Z,23.77
2018-10-19T00:37:28.143Z,22.47
2018-10-19T00:41:30.548Z,21.73
2018-10-19T00:45:38.512Z,23.73
2018-10-19T00:49:40.873Z,24.83
2018-10-19T00:53:43.272Z,22.93
2018-10-19T00:57:45.602Z,26.60
2018-10-19T01:01:47.977Z,23.53
2018-10-19T01:05:50.333Z,24.23
2018-10-19T01:09:52.688Z,25.73
2018-10-19T01:13:55.054Z,24.40
2018-10-19T01:17:57.993Z,25.80
2018-10-19T01:22:00.445Z,26.53
2018-10-19T01:26:02.842Z,27.00
2018-10-19T01:30:06.107Z,22.83
2018-10-19T01:34:08.597Z,25.47
2018-10-19T01:38:11.010Z,26.37
2018-10-19T01:42:13.397Z,23.87
2018-10-19T01:46:15.810Z,24.73
2018-10-19T01:50:18.256Z,30.63
2018-10-19T01:54:20.728Z,34.57
2018-10-19T01:58:23.152Z,26.87
2018-10-19T02:02:25.532Z,27.67
2018-10-19T02:06:27.976Z,25.73
2018-10-19T02:10:30.448Z,24.30
2018-10-19T02:14:32.774Z,27.03
2018-10-19T02:18:35.356Z,27.07
2018-10-19T02:22:37.709Z,25.83
2018-10-19T02:26:40.492Z,27.70
2018-10-19T02:30:42.921Z,30.23
2018-10-19T02:34:45.307Z,26.17
2018-10-19T02:38:47.723Z,24.83
2018-10-19T02:42:50.087Z,25.97
2018-10-19T02:46:52.475Z,21.57
2018-10-19T02:50:54.925Z,23.17
2018-10-19T02:54:57.201Z,20.13
2018-10-19T02:58:59.566Z,20.60
2018-10-19T03:03:01.941Z,24.10
2018-10-19T03:07:04.842Z,25.47
2018-10-19T03:11:07.496Z,24.80
2018-10-19T03:15:09.980Z,23.13
2018-10-19T03:19:12.271Z,26.07
2018-10-19T03:23:14.740Z,24.27
2018-10-19T03:27:17.141Z,22.97
2018-10-19T03:31:19.553Z,23.27
2018-10-19T03:35:21.906Z,26.27
2018-10-19T03:39:24.385Z,23.67
2018-10-19T03:43:26.702Z,18.90
2018-10-19T03:47:29.070Z,21.33
2018-10-19T03:51:31.436Z,24.63
2018-10-19T03:55:33.815Z,20.77
2018-10-19T03:59:36.146Z,21.57
2018-10-19T04:03:39.011Z,22.57
2018-10-19T04:07:41.317Z,22.57
2018-10-19T04:11:43.681Z,23.20
2018-10-19T04:15:46.080Z,26.47
2018-10-19T04:19:48.466Z,24.60
2018-10-19T04:23:50.787Z,23.43
2018-10-19T04:27:53.072Z,25.33
2018-10-19T04:31:55.366Z,26.17
2018-10-19T04:35:58.561Z,35.10
2018-10-19T04:40:01.097Z,40.10
2018-10-19T04:44:03.827Z,36.60
2018-10-19T04:48:06.499Z,36.53
2018-10-19T04:52:08.861Z,40.30
2018-10-19T04:56:11.181Z,42.23
2018-10-19T05:00:14.111Z,39.80
2018-10-19T05:04:16.454Z,43.23
2018-10-19T05:08:18.896Z,37.28
2018-10-19T05:12:21.219Z,38.70
2018-10-19T05:16:23.477Z,32.00
2018-10-19T05:20:25.899Z,28.93
2018-10-19T05:24:28.267Z,29.07
2018-10-19T05:28:30.620Z,29.45
2018-10-19T05:32:33.019Z,28.37
2018-10-19T05:36:35.396Z,25.10
2018-10-19T05:40:37.749Z,31.67
2018-10-19T05:44:40.020Z,30.40
2018-10-19T05:48:42.389Z,32.03
2018-10-19T05:52:44.695Z,35.00
2018-10-19T05:56:47.099Z,36.70
2018-10-19T06:00:49.495Z,37.20
2018-10-19T06:04:51.799Z,35.43
2018-10-19T06:08:54.180Z,29.90
2018-10-19T06:12:56.531Z,27.50
2018-10-19T06:16:58.872Z,32.80
2018-10-19T06:21:01.256Z,32.43
2018-10-19T06:25:04.294Z,33.13
2018-10-19T06:29:06.761Z,29.23
2018-10-19T06:33:09.065Z,33.27
2018-10-19T06:37:11.590Z,30.17
2018-10-19T06:41:14.273Z,28.93
2018-10-19T06:45:17.493Z,33.67
2018-10-19T06:49:19.775Z,31.23
2018-10-19T06:53:22.096Z,30.33
2018-10-19T06:57:24.548Z,27.77
2018-10-19T07:01:27.066Z,27.13
2018-10-19T07:05:29.486Z,31.87
2018-10-19T07:09:31.893Z,31.57
2018-10-19T07:13:34.268Z,47.03
2018-10-19T07:17:37.078Z,31.47
2018-10-19T07:21:39.491Z,33.70
2018-10-19T07:25:41.948Z,34.20
2018-10-19T07:29:44.369Z,33.13
2018-10-19T07:33:47.680Z,33.10
2018-10-19T07:37:49.980Z,34.73
2018-10-19T07:41:52.372Z,30.43
2018-10-19T07:45:54.695Z,33.17
2018-10-19T07:49:57.123Z,32.83
2018-10-19T07:53:59.712Z,33.90
2018-10-19T07:58:02.098Z,32.23
2018-10-19T08:02:05.081Z,36.07
2018-10-19T08:06:07.374Z,31.70
2018-10-19T08:10:10.259Z,33.33
2018-10-19T08:14:12.711Z,36.60
2018-10-19T08:18:15.005Z,33.30
2018-10-19T08:22:17.329Z,32.17
2018-10-19T08:26:19.701Z,33.57
2018-10-19T08:30:22.085Z,39.07
2018-10-19T08:34:24.463Z,33.60
2018-10-19T08:38:26.919Z,41.40
2018-10-19T08:42:29.298Z,34.53
2018-10-19T08:46:37.240Z,32.07
2018-10-19T08:50:39.563Z,30.07
2018-10-19T08:54:41.939Z,27.53
2018-10-19T08:58:44.387Z,29.63
2018-10-19T09:02:46.762Z,30.83
2018-10-19T09:06:49.149Z,30.73
2018-10-19T09:10:51.455Z,30.60
2018-10-19T09:15:01.415Z,37.17
2018-10-19T09:19:03.744Z,28.50
2018-10-19T09:23:06.148Z,28.83
2018-10-19T09:27:08.530Z,26.67
2018-10-19T09:31:10.807Z,28.47
2018-10-19T09:35:13.211Z,32.13
2018-10-19T09:39:15.538Z,27.17
2018-10-19T09:43:17.902Z,28.50
2018-10-19T09:47:20.230Z,32.90
2018-10-19T09:51:22.634Z,32.33
2018-10-19T09:55:25.002Z,29.10
2018-10-19T09:59:27.377Z,26.60
2018-10-19T10:03:29.844Z,30.50
2018-10-19T10:07:32.204Z,30.77
2018-10-19T10:11:34.544Z,31.50
2018-10-19T10:15:37.127Z,32.97
2018-10-19T10:19:39.268Z,28.93
2018-10-19T10:23:42.395Z,30.43
2018-10-19T10:27:44.802Z,26.90
2018-10-19T10:31:47.123Z,30.50
2018-10-19T10:35:49.459Z,35.40
2018-10-19T10:39:51.882Z,28.67
2018-10-19T10:43:54.233Z,31.40
2018-10-19T10:47:56.618Z,27.53
2018-10-19T10:51:59.714Z,32.50
2018-10-19T10:56:02.054Z,27.70
2018-10-19T11:00:04.904Z,32.50
2018-10-19T11:04:07.382Z,29.13
2018-10-19T11:08:09.936Z,28.63
2018-10-19T11:12:12.336Z,24.40
2018-10-19T11:16:14.788Z,27.90
2018-10-19T11:20:17.056Z,26.23
2018-10-19T11:24:19.396Z,25.53
2018-10-19T11:28:21.797Z,26.03
2018-10-19T11:32:24.212Z,29.63
2018-10-19T11:36:26.552Z,28.93
2018-10-19T11:40:30.333Z,27.00
2018-10-19T11:44:32.745Z,31.10
2018-10-19T11:48:35.204Z,29.87
2018-10-19T11:52:39.338Z,31.83
2018-10-19T11:56:42.092Z,29.47
2018-10-19T12:00:44.596Z,31.53
2018-10-19T12:04:47.167Z,36.30
2018-10-19T12:08:50.187Z,33.77
2018-10-19T12:12:52.993Z,32.97
2018-10-19T12:16:55.607Z,30.60
2018-10-19T12:20:57.876Z,29.33
2018-10-19T12:25:00.980Z,28.00
2018-10-19T12:29:03.590Z,32.10
2018-10-19T12:33:06.074Z,27.40
2018-10-19T12:37:09.798Z,29.57
2018-10-19T12:41:12.228Z,27.00
2018-10-19T12:46:29.902Z,29.50
2018-10-19T12:50:32.300Z,30.33
2018-10-19T12:54:34.802Z,28.00
2018-10-19T12:58:37.026Z,30.57
2018-10-19T13:02:39.456Z,27.93
2018-10-19T13:06:41.879Z,25.67
2018-10-19T13:10:44.263Z,27.33
2018-10-19T13:14:46.911Z,28.60
2018-10-19T13:18:50.306Z,28.67
2018-10-19T13:22:52.706Z,28.93
2018-10-19T13:26:55.235Z,25.73
2018-10-19T13:30:57.587Z,26.87
2018-10-19T13:34:59.969Z,27.70
2018-10-19T13:39:02.717Z,25.70
2018-10-19T13:43:05.196Z,30.80
2018-10-19T13:47:07.656Z,44.23
2018-10-19T13:51:10.118Z,29.03
2018-10-19T13:55:12.425Z,27.73
2018-10-19T13:59:14.915Z,29.57
2018-10-19T14:03:17.425Z,28.77
2018-10-19T14:07:19.908Z,33.53
2018-10-19T14:11:22.301Z,59.50
2018-10-19T14:15:24.884Z,31.77
2018-10-19T14:19:27.300Z,26.53
2018-10-19T14:23:29.686Z,28.60
2018-10-19T14:27:32.052Z,26.80
2018-10-19T14:31:34.382Z,27.53
2018-10-19T14:35:36.966Z,33.27
2018-10-19T14:39:39.682Z,28.47
2018-10-19T14:43:42.216Z,45.47
2018-10-19T14:47:45.426Z,73.57
2018-10-19T14:51:47.853Z,34.40
2018-10-19T14:55:50.287Z,31.47
2018-10-19T14:59:53.027Z,30.00
2018-10-19T15:03:55.359Z,28.97
2018-10-19T15:07:57.769Z,28.63
2018-10-19T15:12:00.171Z,26.87
2018-10-19T15:16:02.496Z,28.50
2018-10-19T15:20:05.035Z,31.07
2018-10-19T15:24:07.455Z,29.53
2018-10-19T15:28:09.834Z,30.17
2018-10-19T15:32:12.170Z,33.20
2018-10-19T15:36:14.589Z,28.03
2018-10-19T15:40:16.980Z,29.70
2018-10-19T15:44:19.495Z,27.60
2018-10-19T15:48:21.845Z,26.60
2018-10-19T15:52:24.336Z,28.13
2018-10-19T15:56:26.638Z,27.37
2018-10-19T16:00:29.100Z,26.67
2018-10-19T16:04:31.439Z,26.73
2018-10-19T16:08:33.809Z,27.67
2018-10-19T16:12:36.990Z,24.77
2018-10-19T16:16:39.350Z,23.90
2018-10-19T16:20:42.415Z,27.20
2018-10-19T16:24:44.821Z,27.80
2018-10-19T16:28:47.406Z,26.90
2018-10-19T16:32:49.793Z,24.40
2018-10-19T16:36:52.424Z,23.70
2018-10-19T16:40:54.839Z,27.07
2018-10-19T16:44:57.343Z,24.13
2018-10-19T16:48:59.642Z,20.97
2018-10-19T16:53:02.135Z,24.00
2018-10-19T16:57:04.637Z,23.60
2018-10-19T17:01:06.939Z,21.23
2018-10-19T17:05:09.300Z,23.60
2018-10-19T17:09:13.053Z,20.40
2018-10-19T17:13:15.889Z,25.40
2018-10-19T17:17:18.294Z,23.30
2018-10-19T17:21:20.695Z,19.77
2018-10-19T17:25:23.125Z,28.55
2018-10-19T17:29:25.660Z,37.17
2018-10-19T17:33:28.095Z,31.17
2018-10-19T17:37:30.512Z,31.80
2018-10-19T17:41:33.109Z,32.13
2018-10-19T17:45:35.880Z,33.97
2018-10-19T17:49:38.613Z,35.40
2018-10-19T17:53:40.969Z,34.70
2018-10-19T17:57:43.540Z,39.03
2018-10-19T18:01:45.999Z,38.13
2018-10-19T18:05:48.544Z,36.93
2018-10-19T18:09:51.670Z,36.00
2018-10-19T18:13:54.128Z,43.35
2018-10-19T18:17:56.585Z,39.13
2018-10-19T18:21:59.234Z,37.53
2018-10-19T18:26:01.620Z,36.17
2018-10-19T18:30:04.156Z,32.17
2018-10-19T18:34:06.544Z,31.17
2018-10-19T18:38:09.091Z,33.47
2018-10-19T18:42:11.549Z,33.57
2018-10-19T18:46:13.989Z,33.70
2018-10-19T18:50:16.436Z,33.90
2018-10-19T18:54:18.943Z,32.47
2018-10-19T18:58:21.378Z,30.07
2018-10-19T19:02:24.307Z,33.60
2018-10-19T19:06:27.153Z,33.83
2018-10-19T19:10:29.809Z,31.40
2018-10-19T19:14:32.826Z,32.63
2018-10-19T19:18:35.366Z,38.17
2018-10-19T19:22:37.939Z,34.40
2018-10-19T19:26:40.425Z,34.00
2018-10-19T19:30:43.143Z,37.67
2018-10-19T19:34:45.618Z,37.83
2018-10-19T19:38:48.092Z,37.67
2018-10-19T19:42:53.193Z,40.90
2018-10-19T19:46:55.733Z,35.63
2018-10-19T19:50:58.387Z,33.90
2018-10-19T19:55:00.769Z,31.67
2018-10-19T19:59:03.470Z,34.57
2018-10-19T20:03:05.959Z,28.17
2018-10-19T20:07:08.369Z,43.00
2018-10-19T20:11:11.008Z,41.83
2018-10-19T20:15:13.312Z,35.87
2018-10-19T20:19:15.619Z,36.83
2018-10-19T20:23:18.102Z,31.73
2018-10-19T20:27:20.667Z,32.47
2018-10-19T20:31:23.238Z,40.20
2018-10-19T20:35:25.682Z,35.40
2018-10-19T20:39:28.052Z,35.07
2018-10-19T20:43:30.697Z,32.70
2018-10-19T20:47:33.234Z,34.13
2018-10-19T20:51:35.781Z,35.17
2018-10-19T20:55:38.191Z,37.17
2018-10-19T20:59:40.937Z,38.03
2018-10-19T21:03:43.458Z,34.57
2018-10-19T21:07:46.114Z,37.33
2018-10-19T21:11:48.774Z,36.97
2018-10-19T21:15:51.309Z,39.40
2018-10-19T21:19:53.768Z,46.93
2018-10-19T21:23:56.149Z,50.43
2018-10-19T21:27:58.502Z,43.30
2018-10-19T21:32:00.922Z,39.57
2018-10-19T21:36:03.409Z,37.83
2018-10-19T21:40:05.917Z,42.63
2018-10-19T21:44:08.421Z,40.40
2018-10-19T21:48:10.807Z,37.97
2018-10-19T21:52:13.944Z,35.93
2018-10-19T21:56:16.308Z,34.87
2018-10-19T22:00:18.610Z,35.83
2018-10-19T22:04:21.081Z,37.10
2018-10-19T22:08:23.599Z,37.13
2018-10-19T22:12:25.976Z,40.13
2018-10-19T22:16:28.382Z,39.33
2018-10-19T22:20:40.374Z,34.10
2018-10-19T22:24:42.865Z,32.20
2018-10-19T22:28:45.305Z,33.43
2018-10-19T22:32:47.637Z,34.60
2018-10-19T22:36:50.068Z,35.10
2018-10-19T22:40:52.396Z,39.07
2018-10-19T22:44:54.766Z,37.37
2018-10-19T22:48:57.103Z,42.47
2018-10-19T22:52:59.437Z,38.80
2018-10-19T22:57:01.753Z,38.37
2018-10-19T23:01:04.278Z,38.87
2018-10-19T23:05:06.624Z,39.83
2018-10-19T23:09:09.265Z,40.33
2018-10-19T23:13:11.611Z,43.67
2018-10-19T23:17:14.016Z,45.90
2018-10-19T23:21:16.286Z,41.57
2018-10-19T23:25:18.583Z,41.50
2018-10-19T23:29:20.943Z,40.97
2018-10-19T23:33:23.246Z,41.93
2018-10-19T23:37:25.608Z,42.53
2018-10-19T23:41:27.910Z,39.07
2018-10-19T23:45:30.267Z,43.57
2018-10-19T23:49:32.627Z,46.73
2018-10-19T23:53:35.014Z,45.37
2018-10-19T23:57:37.305Z,44.17
